createdAt,value
2018-12-03T00:01:31.868Z,97123.39
2018-12-03T00:06:35.090Z,97105.60
2018-12-03T00:11:38.357Z,97099.53
2018-12-03T00:16:41.511Z,97094.86
2018-12-03T00:21:44.664Z,97102.82
2018-12-03T00:26:47.902Z,97100.52
2018-12-03T00:31:51.150Z,97107.04
2018-12-03T00:36:54.390Z,97105.72
2018-12-03T00:41:57.571Z,97100.81
2018-12-03T00:47:00.745Z,97112.73
2018-12-03T00:52:03.901Z,97098.75
2018-12-03T00:57:07.597Z,97102.67
2018-12-03T01:02:16.465Z,97111.58
2018-12-03T01:07:19.660Z,97120.13
2018-12-03T01:12:22.818Z,97125.03
2018-12-03T01:17:26.006Z,97128.26
2018-12-03T01:22:29.141Z,97121.66
2018-12-03T01:27:32.310Z,97116.78
2018-12-03T01:32:35.453Z,97129.62
2018-12-03T01:37:38.593Z,97136.18
2018-12-03T01:42:41.828Z,97131.81
2018-12-03T01:47:44.974Z,97122.77
2018-12-03T01:52:48.137Z,97117.23
2018-12-03T01:57:51.325Z,97127.67
2018-12-03T02:02:54.501Z,97128.46
2018-12-03T02:07:57.671Z,97128.83
2018-12-03T02:13:00.808Z,97130.77
2018-12-03T02:18:04.502Z,97129.33
2018-12-03T02:23:07.676Z,97136.35
2018-12-03T02:28:10.827Z,97136.59
2018-12-03T02:33:13.946Z,97134.70
2018-12-03T02:38:17.128Z,97140.23
2018-12-03T02:43:20.272Z,97131.76
2018-12-03T02:48:23.411Z,97121.34
2018-12-03T02:53:26.639Z,97113.37
2018-12-03T02:58:29.868Z,97127.05
2018-12-03T03:03:32.983Z,97126.05
2018-12-03T03:08:36.157Z,97129.48
2018-12-03T03:13:39.390Z,97128.28
2018-12-03T03:18:42.564Z,97129.53
2018-12-03T03:23:45.717Z,97119.73
2018-12-03T03:28:48.911Z,97115.04
2018-12-03T03:33:52.201Z,97111.09
2018-12-03T03:38:55.370Z,97116.83
2018-12-03T03:43:58.512Z,97126.55
2018-12-03T03:49:01.693Z,97128.78
2018-12-03T03:54:05.298Z,97127.42
2018-12-03T03:59:08.429Z,97131.66
2018-12-03T04:04:11.569Z,97128.78
2018-12-03T04:09:14.726Z,97139.25
2018-12-03T04:14:17.864Z,97120.13
2018-12-03T04:19:21.030Z,97130.80
2018-12-03T04:24:24.165Z,97132.32
2018-12-03T04:29:27.327Z,97139.70
2018-12-03T04:34:30.464Z,97140.36
2018-12-03T04:39:33.617Z,97155.27
2018-12-03T04:44:36.756Z,97158.03
2018-12-03T04:49:39.922Z,97149.41
2018-12-03T04:54:43.102Z,97151.14
2018-12-03T04:59:46.264Z,97137.85
2018-12-03T05:04:49.421Z,97155.50
2018-12-03T05:09:52.620Z,97159.75
2018-12-03T05:14:55.759Z,97145.18
2018-12-03T05:19:58.941Z,97142.13
2018-12-03T05:25:02.105Z,97139.06
2018-12-03T05:30:12.274Z,97143.64
2018-12-03T05:35:17.813Z,97142.45
2018-12-03T05:40:24.478Z,97131.76
2018-12-03T05:45:27.661Z,97140.00
2018-12-03T05:50:30.809Z,97142.72
2018-12-03T05:55:33.976Z,97137.76
2018-12-03T06:00:37.138Z,97140.53
2018-12-03T06:05:40.324Z,97151.43
2018-12-03T06:10:43.457Z,97161.98
2018-12-03T06:15:46.648Z,97160.86
2018-12-03T06:20:49.806Z,97168.61
2018-12-03T06:25:53.092Z,97173.70
2018-12-03T06:30:56.254Z,97186.03
2018-12-03T06:35:59.449Z,97179.30
2018-12-03T06:41:02.584Z,97176.68
2018-12-03T06:46:06.019Z,97174.17
2018-12-03T06:51:09.184Z,97173.47
2018-12-03T06:56:12.381Z,97174.65
2018-12-03T07:01:16.371Z,97171.67
2018-12-03T07:06:19.606Z,97182.51
2018-12-03T07:11:22.847Z,97192.03
2018-12-03T07:16:26.013Z,97196.73
2018-12-03T07:21:29.286Z,97196.20
2018-12-03T07:26:32.716Z,97195.87
2018-12-03T07:31:35.923Z,97204.25
2018-12-03T07:36:39.119Z,97202.55
2018-12-03T07:41:42.266Z,97210.03
2018-12-03T07:46:45.478Z,97212.19
2018-12-03T07:51:48.713Z,97217.42
2018-12-03T07:56:51.950Z,97216.44
2018-12-03T08:01:55.129Z,97208.17
2018-12-03T08:06:58.289Z,97217.79
2018-12-03T08:12:01.460Z,97228.97
2018-12-03T08:17:04.795Z,97227.05
2018-12-03T08:22:10.669Z,97224.60
2018-12-03T08:27:13.859Z,97212.45
2018-12-03T08:32:17.040Z,97211.19
2018-12-03T08:37:20.218Z,97220.14
2018-12-03T08:42:23.412Z,97224.17
2018-12-03T08:47:26.623Z,97226.11
2018-12-03T08:52:29.797Z,97225.52
2018-12-03T08:57:32.993Z,97220.76
2018-12-03T09:02:36.286Z,97223.28
2018-12-03T09:07:40.617Z,97218.41
2018-12-03T09:12:43.833Z,97220.30
2018-12-03T09:17:47.086Z,97218.28
2018-12-03T09:22:50.329Z,97224.67
2018-12-03T09:27:53.509Z,97222.39
2018-12-03T09:32:56.747Z,97220.23
2018-12-03T09:37:59.974Z,97223.47
2018-12-03T09:43:03.154Z,97209.90
2018-12-03T09:48:06.624Z,97213.95
2018-12-03T09:53:09.892Z,97206.42
2018-12-03T09:58:21.949Z,97201.53
2018-12-03T10:03:30.321Z,97200.42
2018-12-03T10:08:33.545Z,97210.31
2018-12-03T10:13:36.730Z,97194.45
2018-12-03T10:18:39.965Z,97194.42
2018-12-03T10:23:43.165Z,97189.88
2018-12-03T10:28:46.347Z,97174.49
2018-12-03T10:33:49.624Z,97166.58
2018-12-03T10:38:52.815Z,97156.44
2018-12-03T10:43:59.257Z,97151.41
2018-12-03T10:49:07.318Z,97132.17
2018-12-03T10:54:10.606Z,97126.22
2018-12-03T10:59:13.862Z,97118.60
2018-12-03T11:04:22.626Z,97108.75
2018-12-03T11:09:32.951Z,97096.02
2018-12-03T11:14:30.815Z,97088.27
2018-12-03T11:19:34.058Z,97077.23
2018-12-03T11:24:37.286Z,97071.97
2018-12-03T11:29:41.161Z,97072.78
2018-12-03T11:34:44.372Z,97066.27
2018-12-03T11:39:55.449Z,97063.02
2018-12-03T11:44:58.721Z,97055.41
2018-12-03T11:50:01.949Z,97060.20
2018-12-03T11:55:05.994Z,97050.62
2018-12-03T12:00:11.956Z,97045.72
2018-12-03T12:05:15.169Z,97048.16
2018-12-03T12:10:18.412Z,97042.21
2018-12-03T12:15:21.642Z,97029.36
2018-12-03T12:20:24.865Z,97036.09
2018-12-03T12:25:28.037Z,97038.52
2018-12-03T12:30:31.189Z,97026.03
2018-12-03T12:35:34.382Z,97021.36
2018-12-03T12:40:37.604Z,97025.89
2018-12-03T12:46:06.072Z,97023.73
2018-12-03T12:51:09.375Z,97020.16
2018-12-03T12:56:12.584Z,97020.96
2018-12-03T13:01:15.745Z,97027.39
2018-12-03T13:06:18.966Z,97019.77
2018-12-03T13:11:22.181Z,97016.55
2018-12-03T13:16:25.552Z,97013.59
2018-12-03T13:21:28.747Z,97010.02
2018-12-03T13:26:34.002Z,97009.39
2018-12-03T13:31:37.238Z,97005.45
2018-12-03T13:36:40.424Z,96998.87
2018-12-03T13:41:43.672Z,97014.04
2018-12-03T13:46:46.990Z,97023.27
2018-12-03T13:51:50.220Z,97009.83
2018-12-03T13:56:53.410Z,97007.17
2018-12-03T14:01:56.647Z,97006.30
2018-12-03T14:07:24.820Z,97004.17
2018-12-03T14:12:43.899Z,97012.58
2018-12-03T14:17:55.386Z,97014.58
2018-12-03T14:23:03.818Z,97029.36
2018-12-03T14:28:07.088Z,97018.35
2018-12-03T14:33:10.316Z,97015.57
2018-12-03T14:38:13.523Z,97021.75
2018-12-03T14:43:16.801Z,97035.88
2018-12-03T14:48:20.067Z,97036.77
2018-12-03T14:53:23.268Z,97034.49
2018-12-03T14:58:26.469Z,97018.67
2018-12-03T15:03:29.690Z,97005.67
2018-12-03T15:08:32.891Z,97004.58
2018-12-03T15:13:36.138Z,97012.56
2018-12-03T15:18:39.486Z,97007.59
2018-12-03T15:23:42.730Z,97004.17
2018-12-03T15:28:45.992Z,96994.56
2018-12-03T15:33:49.344Z,96999.34
2018-12-03T15:38:52.594Z,96989.55
2018-12-03T15:43:55.893Z,96994.33
2018-12-03T15:48:59.214Z,97001.49
2018-12-03T15:54:02.542Z,97004.02
2018-12-03T15:59:05.846Z,96998.82
2018-12-03T16:04:09.047Z,96996.44
2018-12-03T16:09:13.476Z,96987.92
2018-12-03T16:14:16.775Z,96971.47
2018-12-03T16:19:20.020Z,96963.59
2018-12-03T16:24:23.299Z,96970.71
2018-12-03T16:29:26.544Z,96967.63
2018-12-03T16:34:29.882Z,96981.98
2018-12-03T16:39:33.215Z,96977.16
2018-12-03T16:44:36.494Z,96981.23
2018-12-03T16:49:39.793Z,96990.98
2018-12-03T16:54:43.008Z,96973.39
2018-12-03T16:59:46.270Z,96967.79
2018-12-03T17:04:49.682Z,96953.25
2018-12-03T17:09:52.904Z,96947.28
2018-12-03T17:14:56.151Z,96948.12
2018-12-03T17:19:59.417Z,96940.44
2018-12-03T17:25:04.592Z,96934.15
2018-12-03T17:30:08.989Z,96938.44
2018-12-03T17:35:12.262Z,96930.17
2018-12-03T17:40:15.533Z,96920.41
2018-12-03T17:45:18.873Z,96909.81
2018-12-03T17:50:22.174Z,96888.22
2018-12-03T17:55:25.404Z,96875.48
2018-12-03T18:00:28.862Z,96875.44
2018-12-03T18:05:32.149Z,96861.29
2018-12-03T18:10:35.423Z,96866.63
2018-12-03T18:15:38.771Z,96868.63
2018-12-03T18:20:42.109Z,96858.24
2018-12-03T18:25:45.518Z,96842.80
2018-12-03T18:30:48.819Z,96837.99
2018-12-03T18:35:52.211Z,96832.80
2018-12-03T18:40:56.498Z,96848.38
2018-12-03T18:45:59.852Z,96850.83
2018-12-03T18:51:03.528Z,96845.99
2018-12-03T18:56:06.917Z,96854.75
2018-12-03T19:01:10.300Z,96852.46
2018-12-03T19:06:13.611Z,96866.86
2018-12-03T19:11:16.942Z,96863.02
2018-12-03T19:16:20.960Z,96861.98
2018-12-03T19:21:23.700Z,96853.19
2018-12-03T19:26:27.119Z,96859.77
2018-12-03T19:31:31.387Z,96851.22
2018-12-03T19:36:33.956Z,96858.41
2018-12-03T19:41:37.352Z,96864.58
2018-12-03T19:46:40.779Z,96878.27
2018-12-03T19:51:44.135Z,96864.83
2018-12-03T19:56:47.435Z,96912.77
2018-12-03T20:01:50.759Z,96915.20
2018-12-03T20:06:54.047Z,96931.24
2018-12-03T20:11:57.411Z,96948.58
2018-12-03T20:17:00.833Z,96981.88
2018-12-03T20:22:06.842Z,96996.70
2018-12-03T20:27:33.534Z,97049.81
2018-12-03T20:32:51.343Z,97068.00
2018-12-03T20:38:05.330Z,97084.94
2018-12-03T20:43:15.811Z,97100.27
2018-12-03T20:48:26.307Z,97117.08
2018-12-03T20:53:37.192Z,97138.75
2018-12-03T20:58:40.475Z,97150.66
2018-12-03T21:03:43.777Z,97183.88
2018-12-03T21:08:47.096Z,97200.04
2018-12-03T21:13:50.395Z,97216.01
2018-12-03T21:18:53.704Z,97245.52
2018-12-03T21:23:57.032Z,97264.09
2018-12-03T21:29:00.373Z,97262.27
2018-12-03T21:34:03.779Z,97267.97
2018-12-03T21:39:08.080Z,97285.22
2018-12-03T21:44:11.336Z,97293.17
2018-12-03T21:49:14.610Z,97300.39
2018-12-03T21:54:17.904Z,97316.17
2018-12-03T21:59:21.125Z,97323.25
2018-12-03T22:04:24.385Z,97334.72
2018-12-03T22:09:27.616Z,97353.78
2018-12-03T22:14:30.862Z,97365.17
2018-12-03T22:19:34.110Z,97374.31
2018-12-03T22:24:37.277Z,97386.42
2018-12-03T22:29:40.504Z,97414.22
2018-12-03T22:34:43.741Z,97409.67
2018-12-03T22:39:46.978Z,97410.80
2018-12-03T22:44:50.212Z,97407.39
2018-12-03T22:49:53.437Z,97408.31
2018-12-03T22:54:56.684Z,97408.66
2018-12-03T22:59:59.881Z,97395.80
2018-12-03T23:05:03.178Z,97400.81
2018-12-03T23:10:06.484Z,97420.09
2018-12-03T23:15:09.735Z,97413.73
2018-12-03T23:20:12.983Z,97422.50
2018-12-03T23:25:16.196Z,97440.93
2018-12-03T23:30:19.391Z,97446.86
2018-12-03T23:35:22.564Z,97448.55
2018-12-03T23:40:25.724Z,97449.41
2018-12-03T23:45:28.901Z,97450.84
2018-12-03T23:50:32.081Z,97451.97
2018-12-03T23:55:35.323Z,97447.73
